createdAt,value
2019-05-30T00:00:45.064Z,3.63
2019-05-30T00:03:14.707Z,3.27
2019-05-30T00:05:43.681Z,3.30
2019-05-30T00:08:13.210Z,3.10
2019-05-30T00:10:51.361Z,3.67
2019-05-30T00:13:40.482Z,3.47
2019-05-30T00:16:10.095Z,3.10
2019-05-30T00:18:38.985Z,3.40
2019-05-30T00:21:09.391Z,3.50
2019-05-30T00:23:39.523Z,3.13
2019-05-30T00:26:09.073Z,3.23
2019-05-30T00:28:38.878Z,3.17
2019-05-30T00:31:08.501Z,3.40
2019-05-30T00:33:37.389Z,3.10
2019-05-30T00:36:06.914Z,3.10
2019-05-30T00:38:36.697Z,3.40
2019-05-30T00:41:24.022Z,2.83
2019-05-30T00:44:02.170Z,3.23
2019-05-30T00:46:48.554Z,2.60
2019-05-30T00:49:30.199Z,2.87
2019-05-30T00:52:06.898Z,3.67
2019-05-30T00:54:36.532Z,3.20
2019-05-30T00:57:07.020Z,3.30
2019-05-30T00:59:36.471Z,2.73
2019-05-30T01:02:07.011Z,3.40
2019-05-30T01:04:36.586Z,3.20
2019-05-30T01:07:07.219Z,3.13
2019-05-30T01:09:36.878Z,3.27
2019-05-30T01:12:07.275Z,3.20
2019-05-30T01:14:36.333Z,3.30
2019-05-30T01:17:07.251Z,3.27
2019-05-30T01:19:37.002Z,3.20
2019-05-30T01:22:07.761Z,2.90
2019-05-30T01:24:37.376Z,3.00
2019-05-30T01:27:07.610Z,3.10
2019-05-30T01:29:36.656Z,2.80
2019-05-30T01:32:24.603Z,2.70
2019-05-30T01:34:54.185Z,3.20
2019-05-30T01:37:23.058Z,3.03
2019-05-30T01:39:53.003Z,3.03
2019-05-30T01:42:22.578Z,2.80
2019-05-30T01:44:52.105Z,3.03
2019-05-30T01:47:21.097Z,2.63
2019-05-30T01:49:54.647Z,3.13
2019-05-30T01:52:23.523Z,3.07
2019-05-30T01:55:00.671Z,2.90
2019-05-30T01:57:29.891Z,2.90
2019-05-30T01:59:59.106Z,2.90
2019-05-30T02:02:34.386Z,2.80
2019-05-30T02:05:05.023Z,3.23
2019-05-30T02:07:34.559Z,2.77
2019-05-30T02:10:05.310Z,3.00
2019-05-30T02:12:34.188Z,3.13
2019-05-30T02:15:03.798Z,3.20
2019-05-30T02:17:38.383Z,2.80
2019-05-30T02:20:05.905Z,3.13
2019-05-30T02:22:35.442Z,2.90
2019-05-30T02:25:12.801Z,3.00
2019-05-30T02:27:42.329Z,3.07
2019-05-30T02:30:14.863Z,3.00
2019-05-30T02:32:50.509Z,2.90
2019-05-30T02:35:37.272Z,3.30
2019-05-30T02:38:07.389Z,3.03
2019-05-30T02:40:37.119Z,3.20
2019-05-30T02:43:07.571Z,2.50
2019-05-30T02:45:36.936Z,2.53
2019-05-30T02:48:07.386Z,3.30
2019-05-30T02:50:37.002Z,3.17
2019-05-30T02:53:15.287Z,3.10
2019-05-30T02:55:44.841Z,3.10
2019-05-30T02:58:14.689Z,2.80
2019-05-30T03:00:43.658Z,3.00
2019-05-30T03:03:14.592Z,2.83
2019-05-30T03:05:45.752Z,2.70
2019-05-30T03:08:15.535Z,2.87
2019-05-30T03:10:45.347Z,2.87
2019-05-30T03:13:21.718Z,2.83
2019-05-30T03:15:50.692Z,2.90
2019-05-30T03:18:19.559Z,3.00
2019-05-30T03:20:54.516Z,2.70
2019-05-30T03:23:21.278Z,3.63
2019-05-30T03:25:50.835Z,3.20
2019-05-30T03:28:19.818Z,3.17
2019-05-30T03:30:49.373Z,3.40
2019-05-30T03:33:38.054Z,3.50
2019-05-30T03:35:50.198Z,3.67
2019-05-30T03:38:23.971Z,2.97
2019-05-30T03:40:53.606Z,3.97
2019-05-30T03:43:23.018Z,3.37
2019-05-30T03:45:52.363Z,3.50
2019-05-30T03:48:23.786Z,3.10
2019-05-30T03:50:53.176Z,3.10
2019-05-30T03:53:23.391Z,3.10
2019-05-30T03:55:55.271Z,2.90
2019-05-30T03:58:55.822Z,3.30
2019-05-30T04:01:29.239Z,3.20
2019-05-30T04:04:12.123Z,3.10
2019-05-30T04:06:42.621Z,3.20
2019-05-30T04:09:19.225Z,3.07
2019-05-30T04:11:54.812Z,3.20
2019-05-30T04:14:25.355Z,3.20
2019-05-30T04:16:54.847Z,2.67
2019-05-30T04:19:23.821Z,2.80
2019-05-30T04:22:02.493Z,2.90
2019-05-30T04:24:31.461Z,2.90
2019-05-30T04:27:00.990Z,3.20
2019-05-30T04:29:29.852Z,3.00
2019-05-30T04:31:59.488Z,3.23
2019-05-30T04:34:29.620Z,3.40
2019-05-30T04:37:02.506Z,3.30
2019-05-30T04:39:31.719Z,3.10
2019-05-30T04:42:01.536Z,3.70
2019-05-30T04:44:31.882Z,3.20
2019-05-30T04:47:00.756Z,3.47
2019-05-30T04:49:29.642Z,3.10
2019-05-30T04:51:59.278Z,3.30
2019-05-30T04:54:46.615Z,3.40
2019-05-30T04:57:16.913Z,3.23
2019-05-30T04:59:46.510Z,3.63
2019-05-30T05:02:18.152Z,3.20
2019-05-30T05:04:47.349Z,3.40
2019-05-30T05:07:17.815Z,3.70
2019-05-30T05:09:47.435Z,3.47
2019-05-30T05:12:18.177Z,3.27
2019-05-30T05:14:53.118Z,3.20
2019-05-30T05:17:23.102Z,3.17
2019-05-30T05:19:52.730Z,3.97
2019-05-30T05:22:39.902Z,3.50
2019-05-30T05:25:09.483Z,3.73
2019-05-30T05:27:39.286Z,3.50
2019-05-30T05:30:10.836Z,3.63
2019-05-30T05:32:40.362Z,3.80
2019-05-30T05:35:09.834Z,3.83
2019-05-30T05:37:45.746Z,3.20
2019-05-30T05:40:15.980Z,3.57
2019-05-30T05:42:45.193Z,3.30
2019-05-30T05:45:22.839Z,3.90
2019-05-30T05:47:54.452Z,3.43
2019-05-30T05:50:24.541Z,3.53
2019-05-30T05:52:56.517Z,4.40
2019-05-30T05:55:25.861Z,3.60
2019-05-30T05:57:57.043Z,3.27
2019-05-30T06:00:26.324Z,3.27
2019-05-30T06:02:55.837Z,3.73
2019-05-30T06:05:25.509Z,3.10
2019-05-30T06:07:54.373Z,3.30
2019-05-30T06:10:23.906Z,3.47
2019-05-30T06:12:53.914Z,3.30
2019-05-30T06:15:23.445Z,3.47
2019-05-30T06:17:59.970Z,3.23
2019-05-30T06:20:29.814Z,3.43
2019-05-30T06:22:59.358Z,2.77
2019-05-30T06:25:32.540Z,2.10
2019-05-30T06:28:00.179Z,2.20
2019-05-30T06:30:46.669Z,1.90
2019-05-30T06:33:27.167Z,1.70
2019-05-30T06:36:05.877Z,1.73
2019-05-30T06:38:34.867Z,2.77
2019-05-30T06:41:03.799Z,2.00
2019-05-30T06:43:33.423Z,1.83
2019-05-30T06:46:03.538Z,1.90
2019-05-30T06:48:39.951Z,1.90
2019-05-30T06:51:09.192Z,1.80
2019-05-30T06:53:45.706Z,1.73
2019-05-30T06:56:14.590Z,1.70
2019-05-30T06:59:00.917Z,2.70
2019-05-30T07:01:39.815Z,2.60
2019-05-30T07:04:09.043Z,1.90
2019-05-30T07:06:39.578Z,2.17
2019-05-30T07:09:13.257Z,2.00
2019-05-30T07:11:42.584Z,2.10
2019-05-30T07:14:12.575Z,1.90
2019-05-30T07:16:49.563Z,2.47
2019-05-30T07:19:37.815Z,2.43
2019-05-30T07:22:06.890Z,1.93
2019-05-30T07:24:35.776Z,2.03
2019-05-30T07:27:23.751Z,1.97
2019-05-30T07:29:52.714Z,1.90
2019-05-30T07:32:22.025Z,1.87
2019-05-30T07:35:05.618Z,1.43
2019-05-30T07:37:24.361Z,1.77
2019-05-30T07:39:53.393Z,1.20
2019-05-30T07:42:23.059Z,1.70
2019-05-30T07:44:52.637Z,1.90
2019-05-30T07:47:21.826Z,1.37
2019-05-30T07:49:50.822Z,2.03
2019-05-30T07:52:20.577Z,1.40
2019-05-30T07:54:57.908Z,1.53
2019-05-30T07:57:30.508Z,1.53
2019-05-30T08:00:00.511Z,1.40
2019-05-30T08:02:31.864Z,1.27
2019-05-30T08:05:23.996Z,1.40
2019-05-30T08:07:48.508Z,1.20
2019-05-30T08:10:19.121Z,1.20
2019-05-30T08:12:49.452Z,1.40
2019-05-30T08:15:19.083Z,1.27
2019-05-30T08:17:48.471Z,1.13
2019-05-30T08:20:17.476Z,1.10
2019-05-30T08:22:47.023Z,1.60
2019-05-30T08:25:16.036Z,1.30
2019-05-30T08:27:45.319Z,1.00
2019-05-30T08:30:14.621Z,1.20
2019-05-30T08:32:44.187Z,1.40
2019-05-30T08:35:13.930Z,1.50
2019-05-30T08:37:43.752Z,1.30
2019-05-30T08:40:17.810Z,1.40
2019-05-30T08:42:47.461Z,1.60
2019-05-30T08:45:17.512Z,1.40
2019-05-30T08:47:47.029Z,1.53
2019-05-30T08:50:16.712Z,1.47
2019-05-30T08:52:45.582Z,1.50
2019-05-30T08:55:15.441Z,1.10
2019-05-30T08:57:57.707Z,1.17
2019-05-30T09:00:19.102Z,1.50
2019-05-30T09:02:48.293Z,1.40
2019-05-30T09:05:22.015Z,1.50
2019-05-30T09:07:50.906Z,1.10
2019-05-30T09:10:19.885Z,1.50
2019-05-30T09:12:56.489Z,1.10
2019-05-30T09:15:26.239Z,1.40
2019-05-30T09:18:00.106Z,1.10
2019-05-30T09:20:33.471Z,1.30
2019-05-30T09:23:15.214Z,1.60
2019-05-30T09:25:47.731Z,1.30
2019-05-30T09:28:15.981Z,1.33
2019-05-30T09:30:46.483Z,1.30
2019-05-30T09:33:23.856Z,1.30
2019-05-30T09:35:54.692Z,1.40
2019-05-30T09:38:30.233Z,1.47
2019-05-30T09:40:59.108Z,1.37
2019-05-30T09:43:29.126Z,1.20
2019-05-30T09:45:59.064Z,1.30
2019-05-30T09:48:30.703Z,1.40
2019-05-30T09:51:00.726Z,1.20
2019-05-30T09:53:30.264Z,1.20
2019-05-30T09:55:59.804Z,1.50
2019-05-30T09:58:30.457Z,1.43
2019-05-30T10:01:02.461Z,1.40
2019-05-30T10:03:32.031Z,1.47
2019-05-30T10:06:01.554Z,1.50
2019-05-30T10:08:30.570Z,1.23
2019-05-30T10:11:03.013Z,1.20
2019-05-30T10:13:40.516Z,1.90
2019-05-30T10:16:10.071Z,1.40
2019-05-30T10:18:41.337Z,1.23
2019-05-30T10:21:10.330Z,1.20
2019-05-30T10:23:40.154Z,1.20
2019-05-30T10:26:10.045Z,1.53
2019-05-30T10:28:40.080Z,1.40
2019-05-30T10:31:16.649Z,1.30
2019-05-30T10:33:46.324Z,1.37
2019-05-30T10:36:16.063Z,1.67
2019-05-30T10:38:46.873Z,1.33
2019-05-30T10:41:16.906Z,1.37
2019-05-30T10:43:53.272Z,1.43
2019-05-30T10:46:22.253Z,1.23
2019-05-30T10:48:52.671Z,1.20
2019-05-30T10:51:23.858Z,1.53
2019-05-30T10:53:54.057Z,1.30
2019-05-30T10:56:29.232Z,1.33
2019-05-30T10:58:58.590Z,1.40
2019-05-30T11:01:31.255Z,1.40
2019-05-30T11:04:01.067Z,1.60
2019-05-30T11:07:10.544Z,1.60
2019-05-30T11:09:31.310Z,1.37
2019-05-30T11:12:00.563Z,1.03
2019-05-30T11:14:33.294Z,1.20
2019-05-30T11:17:02.201Z,1.33
2019-05-30T11:19:36.506Z,1.30
2019-05-30T11:22:05.405Z,1.13
2019-05-30T11:24:35.257Z,1.50
2019-05-30T11:27:05.021Z,1.50
2019-05-30T11:29:42.297Z,1.50
2019-05-30T11:32:12.071Z,1.40
2019-05-30T11:34:51.072Z,1.20
2019-05-30T11:37:20.099Z,1.30
2019-05-30T11:39:55.295Z,1.40
2019-05-30T11:42:30.508Z,1.20
2019-05-30T11:45:00.034Z,1.40
2019-05-30T11:47:30.618Z,1.43
2019-05-30T11:50:02.058Z,1.53
2019-05-30T11:52:30.958Z,1.60
2019-05-30T11:55:00.540Z,1.37
2019-05-30T11:57:30.031Z,1.60
2019-05-30T12:00:08.218Z,2.03
2019-05-30T12:02:37.214Z,1.60
2019-05-30T12:05:07.400Z,1.30
2019-05-30T12:07:37.175Z,1.43
2019-05-30T12:10:07.030Z,3.30
2019-05-30T12:12:35.958Z,1.57
2019-05-30T12:15:15.255Z,2.00
2019-05-30T12:17:44.600Z,1.53
2019-05-30T12:20:22.730Z,1.70
2019-05-30T12:22:51.886Z,1.57
2019-05-30T12:25:21.828Z,1.40
2019-05-30T12:27:51.901Z,1.43
2019-05-30T12:30:22.150Z,1.50
2019-05-30T12:32:58.442Z,1.57
2019-05-30T12:35:28.179Z,1.60
2019-05-30T12:38:06.759Z,1.67
2019-05-30T12:40:35.891Z,1.60
2019-05-30T12:43:05.328Z,1.70
2019-05-30T12:45:35.143Z,1.50
2019-05-30T12:48:04.372Z,1.60
2019-05-30T12:50:34.527Z,1.87
2019-05-30T12:53:05.684Z,1.57
2019-05-30T12:55:37.576Z,1.73
2019-05-30T12:58:07.194Z,2.07
2019-05-30T13:00:38.154Z,1.73
2019-05-30T13:03:07.799Z,1.70
2019-05-30T13:05:37.356Z,1.73
2019-05-30T13:08:20.432Z,2.00
2019-05-30T13:10:38.209Z,1.70
2019-05-30T13:13:07.838Z,1.90
2019-05-30T13:15:37.384Z,1.70
2019-05-30T13:18:07.194Z,2.13
2019-05-30T13:20:36.207Z,2.20
2019-05-30T13:23:06.967Z,2.30
2019-05-30T13:25:35.874Z,2.10
2019-05-30T13:28:08.101Z,2.20
2019-05-30T13:30:36.595Z,2.07
2019-05-30T13:33:06.923Z,2.20
2019-05-30T13:35:38.877Z,2.20
2019-05-30T13:38:26.029Z,2.40
2019-05-30T13:41:02.081Z,2.10
2019-05-30T13:43:31.734Z,2.00
2019-05-30T13:46:00.708Z,2.13
2019-05-30T13:48:30.330Z,2.40
2019-05-30T13:51:00.760Z,2.30
2019-05-30T13:53:30.458Z,2.00
2019-05-30T13:55:59.974Z,2.00
2019-05-30T13:58:29.616Z,2.13
2019-05-30T14:01:05.224Z,2.20
2019-05-30T14:03:32.483Z,2.70
2019-05-30T14:06:02.956Z,2.00
2019-05-30T14:08:42.129Z,3.10
2019-05-30T14:11:18.754Z,2.73
2019-05-30T14:13:48.385Z,2.37
2019-05-30T14:16:18.389Z,2.10
2019-05-30T14:18:47.896Z,2.30
2019-05-30T14:21:27.972Z,2.40
2019-05-30T14:23:56.757Z,2.53
2019-05-30T14:26:25.666Z,2.30
2019-05-30T14:28:54.569Z,3.13
2019-05-30T14:31:29.438Z,2.33
2019-05-30T14:33:58.309Z,2.60
2019-05-30T14:36:27.571Z,2.57
2019-05-30T14:38:58.940Z,2.50
2019-05-30T14:41:29.446Z,2.20
2019-05-30T14:44:03.118Z,2.57
2019-05-30T14:46:32.758Z,2.47
2019-05-30T14:49:02.335Z,2.57
2019-05-30T14:51:31.315Z,2.80
2019-05-30T14:54:00.845Z,2.80
2019-05-30T14:56:37.040Z,2.57
2019-05-30T14:59:06.886Z,2.73
2019-05-30T15:01:43.745Z,2.43
2019-05-30T15:04:13.542Z,2.80
2019-05-30T15:06:50.208Z,2.37
2019-05-30T15:09:25.909Z,2.50
2019-05-30T15:11:50.315Z,2.27
2019-05-30T15:14:19.578Z,2.10
2019-05-30T15:16:49.130Z,2.50
2019-05-30T15:19:18.708Z,2.53
2019-05-30T15:21:50.530Z,2.50
2019-05-30T15:24:19.442Z,2.23
2019-05-30T15:26:48.333Z,2.10
2019-05-30T15:29:18.366Z,2.20
2019-05-30T15:31:47.998Z,2.30
2019-05-30T15:34:19.031Z,2.27
2019-05-30T15:36:48.702Z,2.50
2019-05-30T15:39:31.557Z,2.10
2019-05-30T15:41:48.516Z,2.07
2019-05-30T15:44:18.169Z,2.27
2019-05-30T15:46:48.011Z,2.33
2019-05-30T15:49:18.432Z,2.10
2019-05-30T15:51:48.597Z,2.30
2019-05-30T15:54:17.488Z,2.37
2019-05-30T15:56:47.051Z,2.20
2019-05-30T15:59:16.025Z,2.40
2019-05-30T16:01:45.651Z,2.40
2019-05-30T16:04:14.562Z,2.43
2019-05-30T16:06:44.090Z,2.30
2019-05-30T16:09:13.213Z,2.40
2019-05-30T16:11:42.131Z,2.30
2019-05-30T16:14:11.167Z,2.93
2019-05-30T16:16:41.105Z,2.27
2019-05-30T16:19:17.362Z,2.50
2019-05-30T16:21:41.457Z,2.70
2019-05-30T16:24:12.296Z,2.50
2019-05-30T16:26:49.144Z,3.10
2019-05-30T16:29:21.879Z,2.60
2019-05-30T16:31:51.488Z,3.13
2019-05-30T16:34:22.227Z,3.17
2019-05-30T16:36:52.113Z,3.40
2019-05-30T16:39:22.490Z,3.20
2019-05-30T16:41:52.442Z,2.60
2019-05-30T16:44:22.561Z,2.53
2019-05-30T16:47:03.447Z,2.47
2019-05-30T16:49:32.325Z,2.40
2019-05-30T16:52:02.625Z,2.50
2019-05-30T16:54:33.873Z,2.43
2019-05-30T16:57:02.799Z,2.20
2019-05-30T16:59:32.381Z,2.23
2019-05-30T17:02:02.050Z,2.57
2019-05-30T17:04:33.352Z,2.30
2019-05-30T17:07:04.369Z,2.13
2019-05-30T17:09:34.689Z,2.10
2019-05-30T17:12:03.582Z,2.30
2019-05-30T17:14:33.127Z,2.60
2019-05-30T17:17:03.133Z,2.40
2019-05-30T17:19:32.733Z,2.40
2019-05-30T17:22:01.629Z,2.30
2019-05-30T17:24:31.829Z,2.00
2019-05-30T17:27:00.905Z,2.37
2019-05-30T17:29:30.990Z,2.40
2019-05-30T17:32:00.261Z,2.10
2019-05-30T17:34:29.828Z,1.97
2019-05-30T17:36:58.715Z,2.00
2019-05-30T17:39:28.901Z,2.10
2019-05-30T17:41:58.109Z,1.80
2019-05-30T17:44:27.242Z,2.10
2019-05-30T17:46:56.952Z,2.30
2019-05-30T17:49:27.747Z,2.20
2019-05-30T17:51:56.802Z,1.73
2019-05-30T17:54:26.477Z,2.00
2019-05-30T17:56:56.035Z,2.23
2019-05-30T17:59:36.287Z,2.40
2019-05-30T18:02:00.965Z,2.10
2019-05-30T18:04:39.807Z,1.80
2019-05-30T18:07:08.798Z,2.30
2019-05-30T18:09:38.358Z,1.80
2019-05-30T18:12:07.572Z,1.87
2019-05-30T18:14:37.357Z,1.70
2019-05-30T18:17:09.435Z,2.20
2019-05-30T18:19:39.158Z,2.40
2019-05-30T18:22:08.999Z,2.43
2019-05-30T18:24:38.573Z,2.33
2019-05-30T18:27:13.073Z,2.10
2019-05-30T18:29:40.127Z,2.43
2019-05-30T18:32:09.681Z,1.83
2019-05-30T18:34:40.461Z,2.50
2019-05-30T18:37:10.148Z,2.20
2019-05-30T18:39:39.728Z,2.83
2019-05-30T18:42:09.596Z,3.03
2019-05-30T18:44:38.600Z,3.10
2019-05-30T18:47:08.240Z,2.83
2019-05-30T18:49:38.977Z,2.97
2019-05-30T18:52:08.209Z,3.00
2019-05-30T18:54:37.106Z,3.70
2019-05-30T18:57:05.982Z,4.43
2019-05-30T18:59:43.337Z,3.70
2019-05-30T19:02:13.019Z,3.33
2019-05-30T19:04:41.890Z,3.10
2019-05-30T19:07:11.675Z,3.00
2019-05-30T19:09:42.805Z,3.50
2019-05-30T19:12:14.521Z,3.13
2019-05-30T19:14:44.026Z,3.37
2019-05-30T19:17:13.571Z,3.40
2019-05-30T19:19:42.569Z,3.40
2019-05-30T19:22:11.713Z,3.40
2019-05-30T19:24:41.250Z,3.03
2019-05-30T19:27:11.174Z,3.30
2019-05-30T19:29:40.108Z,3.47
2019-05-30T19:32:09.707Z,3.43
2019-05-30T19:34:39.630Z,3.77
2019-05-30T19:37:09.635Z,3.93
2019-05-30T19:39:45.613Z,4.03
2019-05-30T19:42:15.593Z,4.07
2019-05-30T19:44:44.847Z,3.40
2019-05-30T19:47:14.378Z,3.53
2019-05-30T19:49:43.817Z,3.27
2019-05-30T19:52:12.747Z,3.73
2019-05-30T19:54:42.207Z,3.13
2019-05-30T19:57:12.113Z,3.50
2019-05-30T19:59:41.001Z,3.53
2019-05-30T20:02:09.898Z,3.97
2019-05-30T20:04:43.929Z,3.43
2019-05-30T20:07:10.702Z,3.60
2019-05-30T20:09:40.773Z,3.30
2019-05-30T20:12:09.783Z,4.30
2019-05-30T20:14:39.262Z,3.70
2019-05-30T20:17:08.836Z,3.87
2019-05-30T20:22:15.284Z,3.77
2019-05-30T20:24:53.114Z,3.60
2019-05-30T20:27:22.495Z,3.83
2019-05-30T20:29:52.041Z,3.97
2019-05-30T20:32:22.962Z,3.80
2019-05-30T20:35:01.735Z,3.63
2019-05-30T20:37:31.294Z,3.50
2019-05-30T20:40:00.842Z,4.40
2019-05-30T20:42:34.732Z,3.80
2019-05-30T20:45:05.679Z,4.40
2019-05-30T20:47:36.010Z,4.00
2019-05-30T20:50:05.767Z,3.80
2019-05-30T20:52:44.098Z,3.73
2019-05-30T20:55:16.594Z,3.57
2019-05-30T20:57:47.555Z,4.00
2019-05-30T21:00:26.586Z,4.20
2019-05-30T21:03:03.983Z,3.83
2019-05-30T21:05:37.699Z,4.50
2019-05-30T21:08:07.545Z,4.10
2019-05-30T21:10:39.162Z,3.90
2019-05-30T21:13:08.589Z,4.10
2019-05-30T21:15:39.526Z,4.63
2019-05-30T21:18:08.500Z,4.27
2019-05-30T21:20:37.820Z,4.77
2019-05-30T21:23:06.792Z,5.70
2019-05-30T21:25:45.096Z,5.00
2019-05-30T21:28:17.601Z,4.80
2019-05-30T21:30:47.486Z,4.77
2019-05-30T21:33:17.424Z,4.40
2019-05-30T21:35:47.805Z,4.30
2019-05-30T21:38:18.571Z,4.10
2019-05-30T21:40:48.980Z,3.80
2019-05-30T21:43:17.961Z,6.97
2019-05-30T21:45:47.551Z,4.63
2019-05-30T21:48:17.251Z,6.37
2019-05-30T21:50:56.071Z,6.17
2019-05-30T21:53:25.070Z,5.90
2019-05-30T21:55:53.949Z,5.97
2019-05-30T21:58:23.936Z,5.23
2019-05-30T22:01:44.848Z,4.80
2019-05-30T22:04:14.513Z,4.63
2019-05-30T22:06:44.888Z,4.10
2019-05-30T22:09:14.604Z,4.43
2019-05-30T22:11:44.138Z,4.37
2019-05-30T22:14:13.969Z,4.00
2019-05-30T22:16:43.949Z,4.43
2019-05-30T22:19:12.949Z,4.80
2019-05-30T22:21:44.260Z,4.10
2019-05-30T22:24:16.414Z,4.80
2019-05-30T22:26:46.338Z,4.30
2019-05-30T22:29:16.229Z,4.60
2019-05-30T22:31:46.580Z,4.73
2019-05-30T22:34:16.224Z,4.60
2019-05-30T22:36:49.017Z,4.40
2019-05-30T22:39:18.676Z,4.30
2019-05-30T22:41:56.922Z,4.37
2019-05-30T22:44:29.648Z,4.20
2019-05-30T22:46:59.465Z,4.40
2019-05-30T22:49:31.040Z,4.90
2019-05-30T22:52:07.176Z,4.70
2019-05-30T22:54:34.299Z,4.13
2019-05-30T22:57:03.848Z,4.50
2019-05-30T22:59:38.165Z,4.60
2019-05-30T23:02:07.702Z,5.13
2019-05-30T23:04:37.245Z,4.50
2019-05-30T23:07:09.464Z,4.93
2019-05-30T23:09:39.043Z,5.60
2019-05-30T23:12:07.964Z,4.80
2019-05-30T23:14:39.027Z,5.53
2019-05-30T23:17:17.113Z,5.10
2019-05-30T23:19:56.875Z,5.53
2019-05-30T23:22:25.816Z,5.60
2019-05-30T23:25:04.560Z,5.13
2019-05-30T23:27:38.211Z,5.03
2019-05-30T23:30:07.928Z,5.33
2019-05-30T23:32:37.474Z,5.20
2019-05-30T23:35:06.570Z,5.43
2019-05-30T23:37:36.226Z,5.10
2019-05-30T23:40:06.119Z,4.87
2019-05-30T23:42:53.349Z,4.63
2019-05-30T23:45:23.013Z,5.30
2019-05-30T23:47:53.489Z,5.13
2019-05-30T23:50:23.419Z,5.70
2019-05-30T23:53:00.341Z,5.50
2019-05-30T23:55:30.312Z,5.60
2019-05-30T23:58:00.802Z,4.97
